sensor_id;sensor_type;location;lat;lon;timestamp;temperature;humidity
18041;DHT22;9145;48.588;9.250;2022-10-17T00:00:04;15.40;99.90
18041;DHT22;9145;48.588;9.250;2022-10-17T00:02:31;15.40;99.90
18041;DHT22;9145;48.588;9.250;2022-10-17T00:04:57;15.40;99.90
18041;DHT22;9145;48.588;9.250;2022-10-17T00:07:26;15.40;99.90
18041;DHT22;9145;48.588;9.250;2022-10-17T00:09:53;15.50;99.90
18041;DHT22;9145;48.588;9.250;2022-10-17T00:12:19;15.50;99.90
18041;DHT22;9145;48.588;9.250;2022-10-17T00:14:46;15.50;99.90
18041;DHT22;9145;48.588;9.250;2022-10-17T00:17:13;15.50;99.90
18041;DHT22;9145;48.588;9.250;2022-10-17T00:19:40;15.40;99.90
18041;DHT22;9145;48.588;9.250;2022-10-17T00:22:07;15.40;99.90
18041;DHT22;9145;48.588;9.250;2022-10-17T00:24:35;15.40;99.90
18041;DHT22;9145;48.588;9.250;2022-10-17T00:27:02;15.30;99.90
18041;DHT22;9145;48.588;9.250;2022-10-17T00:29:29;15.30;99.90
18041;DHT22;9145;48.588;9.250;2022-10-17T00:31:56;15.30;99.90
18041;DHT22;9145;48.588;9.250;2022-10-17T00:34:24;15.30;99.90
18041;DHT22;9145;48.588;9.250;2022-10-17T00:36:50;15.30;99.90
18041;DHT22;9145;48.588;9.250;2022-10-17T00:39:17;15.40;99.90
18041;DHT22;9145;48.588;9.250;2022-10-17T00:41:46;15.40;99.90
18041;DHT22;9145;48.588;9.250;2022-10-17T00:47:19;15.50;99.90
18041;DHT22;9145;48.588;9.250;2022-10-17T00:49:48;15.60;99.90
18041;DHT22;9145;48.588;9.250;2022-10-17T00:52:16;15.60;99.90
18041;DHT22;9145;48.588;9.250;2022-10-17T00:54:48;15.60;99.90
18041;DHT22;9145;48.588;9.250;2022-10-17T00:57:16;15.60;99.90
18041;DHT22;9145;48.588;9.250;2022-10-17T00:59:46;15.60;99.90
18041;DHT22;9145;48.588;9.250;2022-10-17T01:02:17;15.50;99.90
18041;DHT22;9145;48.588;9.250;2022-10-17T01:04:47;15.50;99.90
18041;DHT22;9145;48.588;9.250;2022-10-17T01:07:14;15.40;99.90
18041;DHT22;9145;48.588;9.250;2022-10-17T01:09:42;15.20;99.90
18041;DHT22;9145;48.588;9.250;2022-10-17T01:12:17;15.20;99.90
18041;DHT22;9145;48.588;9.250;2022-10-17T01:14:53;14.90;99.90
18041;DHT22;9145;48.588;9.250;2022-10-17T01:17:27;14.90;99.90
18041;DHT22;9145;48.588;9.250;2022-10-17T01:20:20;14.80;99.90
18041;DHT22;9145;48.588;9.250;2022-10-17T01:23:01;14.60;99.90
18041;DHT22;9145;48.588;9.250;2022-10-17T01:25:44;14.50;99.90
18041;DHT22;9145;48.588;9.250;2022-10-17T01:28:31;14.30;99.90
18041;DHT22;9145;48.588;9.250;2022-10-17T01:31:06;14.30;99.90
18041;DHT22;9145;48.588;9.250;2022-10-17T01:33:49;14.30;99.90
18041;DHT22;9145;48.588;9.250;2022-10-17T01:36:26;14.20;99.90
18041;DHT22;9145;48.588;9.250;2022-10-17T01:39:01;14.20;99.90
18041;DHT22;9145;48.588;9.250;2022-10-17T01:41:37;14.10;99.90
18041;DHT22;9145;48.588;9.250;2022-10-17T01:44:09;14.20;99.90
18041;DHT22;9145;48.588;9.250;2022-10-17T01:46:42;14.20;99.90
18041;DHT22;9145;48.588;9.250;2022-10-17T01:49:12;14.10;99.90
18041;DHT22;9145;48.588;9.250;2022-10-17T01:51:42;14.10;99.90
18041;DHT22;9145;48.588;9.250;2022-10-17T01:54:14;14.10;99.90
18041;DHT22;9145;48.588;9.250;2022-10-17T01:56:43;14.00;99.90
18041;DHT22;9145;48.588;9.250;2022-10-17T01:59:13;13.90;99.90
18041;DHT22;9145;48.588;9.250;2022-10-17T02:01:46;13.80;99.90
18041;DHT22;9145;48.588;9.250;2022-10-17T02:04:13;13.80;99.90
18041;DHT22;9145;48.588;9.250;2022-10-17T02:06:41;13.70;99.90
18041;DHT22;9145;48.588;9.250;2022-10-17T02:09:18;13.60;99.90
18041;DHT22;9145;48.588;9.250;2022-10-17T02:11:56;13.50;99.90
18041;DHT22;9145;48.588;9.250;2022-10-17T02:14:31;13.50;99.90
18041;DHT22;9145;48.588;9.250;2022-10-17T02:17:10;13.50;99.90
18041;DHT22;9145;48.588;9.250;2022-10-17T02:19:45;13.50;99.90
18041;DHT22;9145;48.588;9.250;2022-10-17T02:22:24;13.50;99.90
18041;DHT22;9145;48.588;9.250;2022-10-17T02:24:59;13.40;99.90
18041;DHT22;9145;48.588;9.250;2022-10-17T02:27:33;13.30;99.90
18041;DHT22;9145;48.588;9.250;2022-10-17T02:30:10;13.30;99.90
18041;DHT22;9145;48.588;9.250;2022-10-17T02:32:42;13.30;99.90
18041;DHT22;9145;48.588;9.250;2022-10-17T02:35:13;13.40;99.90
18041;DHT22;9145;48.588;9.250;2022-10-17T02:37:42;13.40;99.90
18041;DHT22;9145;48.588;9.250;2022-10-17T02:40:12;13.50;99.90
18041;DHT22;9145;48.588;9.250;2022-10-17T02:42:41;13.40;99.90
18041;DHT22;9145;48.588;9.250;2022-10-17T02:45:10;13.50;99.90
18041;DHT22;9145;48.588;9.250;2022-10-17T02:47:47;13.70;99.90
18041;DHT22;9145;48.588;9.250;2022-10-17T02:50:16;13.70;99.90
18041;DHT22;9145;48.588;9.250;2022-10-17T02:52:47;13.70;99.90
18041;DHT22;9145;48.588;9.250;2022-10-17T02:55:18;13.70;99.90
18041;DHT22;9145;48.588;9.250;2022-10-17T02:57:49;13.70;99.90
18041;DHT22;9145;48.588;9.250;2022-10-17T03:00:18;13.70;99.90
18041;DHT22;9145;48.588;9.250;2022-10-17T03:02:48;13.70;99.90
18041;DHT22;9145;48.588;9.250;2022-10-17T03:05:18;13.80;99.90
18041;DHT22;9145;48.588;9.250;2022-10-17T03:07:45;13.80;99.90
18041;DHT22;9145;48.588;9.250;2022-10-17T03:10:12;13.70;99.90
18041;DHT22;9145;48.588;9.250;2022-10-17T03:12:39;13.60;99.90
18041;DHT22;9145;48.588;9.250;2022-10-17T03:15:07;13.60;99.90
18041;DHT22;9145;48.588;9.250;2022-10-17T03:17:34;13.60;99.90
18041;DHT22;9145;48.588;9.250;2022-10-17T03:20:03;13.60;99.90
18041;DHT22;9145;48.588;9.250;2022-10-17T03:22:30;13.60;99.90
18041;DHT22;9145;48.588;9.250;2022-10-17T03:24:57;13.50;99.90
18041;DHT22;9145;48.588;9.250;2022-10-17T03:27:24;13.50;99.90
18041;DHT22;9145;48.588;9.250;2022-10-17T03:29:51;13.60;99.90
18041;DHT22;9145;48.588;9.250;2022-10-17T03:32:18;13.50;99.90
18041;DHT22;9145;48.588;9.250;2022-10-17T03:34:44;13.50;99.90
18041;DHT22;9145;48.588;9.250;2022-10-17T03:37:13;13.60;99.90
18041;DHT22;9145;48.588;9.250;2022-10-17T03:39:39;13.60;99.90
18041;DHT22;9145;48.588;9.250;2022-10-17T03:42:06;13.70;99.90
18041;DHT22;9145;48.588;9.250;2022-10-17T03:44:33;13.70;99.90
18041;DHT22;9145;48.588;9.250;2022-10-17T03:47:00;13.70;99.90
18041;DHT22;9145;48.588;9.250;2022-10-17T03:49:27;13.60;99.90
18041;DHT22;9145;48.588;9.250;2022-10-17T03:51:53;13.10;99.90
18041;DHT22;9145;48.588;9.250;2022-10-17T03:54:22;12.90;99.90
18041;DHT22;9145;48.588;9.250;2022-10-17T03:56:48;12.70;99.90
18041;DHT22;9145;48.588;9.250;2022-10-17T03:59:15;12.50;99.90
18041;DHT22;9145;48.588;9.250;2022-10-17T04:01:42;12.50;99.90
18041;DHT22;9145;48.588;9.250;2022-10-17T04:04:09;12.50;99.90
18041;DHT22;9145;48.588;9.250;2022-10-17T04:06:36;12.50;99.90
18041;DHT22;9145;48.588;9.250;2022-10-17T04:09:05;12.50;99.90
18041;DHT22;9145;48.588;9.250;2022-10-17T04:11:33;12.50;99.90
18041;DHT22;9145;48.588;9.250;2022-10-17T04:14:00;12.40;99.90
18041;DHT22;9145;48.588;9.250;2022-10-17T04:16:27;12.40;99.90
18041;DHT22;9145;48.588;9.250;2022-10-17T04:18:55;12.40;99.90
18041;DHT22;9145;48.588;9.250;2022-10-17T04:21:23;12.40;99.90
18041;DHT22;9145;48.588;9.250;2022-10-17T04:23:52;12.40;99.90
18041;DHT22;9145;48.588;9.250;2022-10-17T04:26:19;12.40;99.90
18041;DHT22;9145;48.588;9.250;2022-10-17T04:28:47;12.40;99.90
18041;DHT22;9145;48.588;9.250;2022-10-17T04:31:14;12.40;99.90
18041;DHT22;9145;48.588;9.250;2022-10-17T04:33:41;12.40;99.90
18041;DHT22;9145;48.588;9.250;2022-10-17T04:36:11;12.40;99.90
18041;DHT22;9145;48.588;9.250;2022-10-17T04:38:38;12.40;99.90
18041;DHT22;9145;48.588;9.250;2022-10-17T04:41:07;12.40;99.90
18041;DHT22;9145;48.588;9.250;2022-10-17T04:43:36;12.40;99.90
18041;DHT22;9145;48.588;9.250;2022-10-17T04:46:08;12.40;99.90
18041;DHT22;9145;48.588;9.250;2022-10-17T04:48:35;12.40;99.90
18041;DHT22;9145;48.588;9.250;2022-10-17T04:51:04;12.50;99.90
18041;DHT22;9145;48.588;9.250;2022-10-17T04:53:32;12.50;99.90
18041;DHT22;9145;48.588;9.250;2022-10-17T04:55:59;12.50;99.90
18041;DHT22;9145;48.588;9.250;2022-10-17T04:58:27;12.50;99.90
18041;DHT22;9145;48.588;9.250;2022-10-17T05:00:55;12.50;99.90
18041;DHT22;9145;48.588;9.250;2022-10-17T05:03:23;12.50;99.90
18041;DHT22;9145;48.588;9.250;2022-10-17T05:05:50;12.60;99.90
18041;DHT22;9145;48.588;9.250;2022-10-17T05:08:17;12.60;99.90
18041;DHT22;9145;48.588;9.250;2022-10-17T05:10:44;12.60;99.90
18041;DHT22;9145;48.588;9.250;2022-10-17T05:13:11;12.70;99.90
18041;DHT22;9145;48.588;9.250;2022-10-17T05:15:38;12.60;99.90
18041;DHT22;9145;48.588;9.250;2022-10-17T05:18:06;12.50;99.90
18041;DHT22;9145;48.588;9.250;2022-10-17T05:20:34;12.40;99.90
18041;DHT22;9145;48.588;9.250;2022-10-17T05:23:01;12.40;99.90
18041;DHT22;9145;48.588;9.250;2022-10-17T05:25:28;12.50;99.90
18041;DHT22;9145;48.588;9.250;2022-10-17T05:27:54;12.50;99.90
18041;DHT22;9145;48.588;9.250;2022-10-17T05:30:21;12.40;99.90
18041;DHT22;9145;48.588;9.250;2022-10-17T05:32:51;12.40;99.90
18041;DHT22;9145;48.588;9.250;2022-10-17T05:35:19;12.40;99.90
18041;DHT22;9145;48.588;9.250;2022-10-17T05:37:47;12.50;99.90
18041;DHT22;9145;48.588;9.250;2022-10-17T05:40:14;12.50;99.90
18041;DHT22;9145;48.588;9.250;2022-10-17T05:42:45;12.40;99.90
18041;DHT22;9145;48.588;9.250;2022-10-17T05:45:12;12.40;99.90
18041;DHT22;9145;48.588;9.250;2022-10-17T05:47:39;12.40;99.90
18041;DHT22;9145;48.588;9.250;2022-10-17T05:50:07;12.40;99.90
18041;DHT22;9145;48.588;9.250;2022-10-17T05:52:34;12.40;99.90
18041;DHT22;9145;48.588;9.250;2022-10-17T05:55:03;12.20;99.90
18041;DHT22;9145;48.588;9.250;2022-10-17T05:57:30;12.20;99.90
18041;DHT22;9145;48.588;9.250;2022-10-17T05:59:57;12.20;99.90
18041;DHT22;9145;48.588;9.250;2022-10-17T06:02:25;12.20;99.90
18041;DHT22;9145;48.588;9.250;2022-10-17T06:04:52;12.40;99.90
18041;DHT22;9145;48.588;9.250;2022-10-17T06:07:19;12.60;99.90
18041;DHT22;9145;48.588;9.250;2022-10-17T06:09:46;12.50;99.90
18041;DHT22;9145;48.588;9.250;2022-10-17T06:12:14;12.50;99.90
18041;DHT22;9145;48.588;9.250;2022-10-17T06:14:41;12.40;99.90
18041;DHT22;9145;48.588;9.250;2022-10-17T06:17:07;12.20;99.90
18041;DHT22;9145;48.588;9.250;2022-10-17T06:19:34;12.10;99.90
18041;DHT22;9145;48.588;9.250;2022-10-17T06:22:01;12.00;99.90
18041;DHT22;9145;48.588;9.250;2022-10-17T06:24:28;12.10;99.90
18041;DHT22;9145;48.588;9.250;2022-10-17T06:26:55;12.20;99.90
18041;DHT22;9145;48.588;9.250;2022-10-17T06:29:23;12.30;99.90
18041;DHT22;9145;48.588;9.250;2022-10-17T06:31:50;12.40;99.90
18041;DHT22;9145;48.588;9.250;2022-10-17T06:34:17;12.40;99.90
18041;DHT22;9145;48.588;9.250;2022-10-17T06:36:44;12.40;99.90
18041;DHT22;9145;48.588;9.250;2022-10-17T06:39:10;12.30;99.90
18041;DHT22;9145;48.588;9.250;2022-10-17T06:41:37;12.30;99.90
18041;DHT22;9145;48.588;9.250;2022-10-17T06:44:05;12.40;99.90
18041;DHT22;9145;48.588;9.250;2022-10-17T06:46:37;12.30;99.90
18041;DHT22;9145;48.588;9.250;2022-10-17T06:49:05;12.30;99.90
18041;DHT22;9145;48.588;9.250;2022-10-17T06:51:34;12.40;99.90
18041;DHT22;9145;48.588;9.250;2022-10-17T06:54:02;12.60;99.90
18041;DHT22;9145;48.588;9.250;2022-10-17T06:56:29;12.60;99.90
18041;DHT22;9145;48.588;9.250;2022-10-17T06:58:55;12.70;99.90
18041;DHT22;9145;48.588;9.250;2022-10-17T07:01:22;12.70;99.90
18041;DHT22;9145;48.588;9.250;2022-10-17T07:03:50;12.80;99.90
18041;DHT22;9145;48.588;9.250;2022-10-17T07:06:17;12.80;99.90
18041;DHT22;9145;48.588;9.250;2022-10-17T07:08:45;12.80;99.90
18041;DHT22;9145;48.588;9.250;2022-10-17T07:11:13;12.70;99.90
18041;DHT22;9145;48.588;9.250;2022-10-17T07:13:41;12.80;99.90
18041;DHT22;9145;48.588;9.250;2022-10-17T07:16:08;13.00;99.90
18041;DHT22;9145;48.588;9.250;2022-10-17T07:18:35;13.10;99.90
18041;DHT22;9145;48.588;9.250;2022-10-17T07:21:05;13.30;99.90
18041;DHT22;9145;48.588;9.250;2022-10-17T07:23:33;13.30;99.90
18041;DHT22;9145;48.588;9.250;2022-10-17T07:26:03;13.30;99.90
18041;DHT22;9145;48.588;9.250;2022-10-17T07:28:32;13.30;99.90
18041;DHT22;9145;48.588;9.250;2022-10-17T07:31:03;13.30;99.90
18041;DHT22;9145;48.588;9.250;2022-10-17T07:33:30;13.40;99.90
18041;DHT22;9145;48.588;9.250;2022-10-17T07:35:57;13.40;99.90
18041;DHT22;9145;48.588;9.250;2022-10-17T07:38:26;13.50;99.90
18041;DHT22;9145;48.588;9.250;2022-10-17T07:40:53;13.50;99.90
18041;DHT22;9145;48.588;9.250;2022-10-17T07:43:20;13.50;99.90
18041;DHT22;9145;48.588;9.250;2022-10-17T07:45:47;13.60;99.90
18041;DHT22;9145;48.588;9.250;2022-10-17T07:48:14;13.70;99.90
18041;DHT22;9145;48.588;9.250;2022-10-17T07:50:41;13.80;99.90
18041;DHT22;9145;48.588;9.250;2022-10-17T07:53:08;13.90;99.90
18041;DHT22;9145;48.588;9.250;2022-10-17T07:55:37;14.00;99.90
18041;DHT22;9145;48.588;9.250;2022-10-17T07:58:04;14.00;99.90
18041;DHT22;9145;48.588;9.250;2022-10-17T08:00:32;14.00;99.90
18041;DHT22;9145;48.588;9.250;2022-10-17T08:02:58;14.10;99.90
18041;DHT22;9145;48.588;9.250;2022-10-17T08:05:25;14.20;99.90
18041;DHT22;9145;48.588;9.250;2022-10-17T08:07:52;14.20;99.90
18041;DHT22;9145;48.588;9.250;2022-10-17T08:10:20;14.40;99.90
18041;DHT22;9145;48.588;9.250;2022-10-17T08:12:48;14.50;99.90
18041;DHT22;9145;48.588;9.250;2022-10-17T08:15:15;14.60;99.90
18041;DHT22;9145;48.588;9.250;2022-10-17T08:17:42;14.60;99.90
18041;DHT22;9145;48.588;9.250;2022-10-17T08:20:10;14.70;99.90
18041;DHT22;9145;48.588;9.250;2022-10-17T08:22:37;14.70;99.90
18041;DHT22;9145;48.588;9.250;2022-10-17T08:25:04;14.70;99.90
18041;DHT22;9145;48.588;9.250;2022-10-17T08:27:31;14.90;99.90
18041;DHT22;9145;48.588;9.250;2022-10-17T08:30:00;15.00;99.90
18041;DHT22;9145;48.588;9.250;2022-10-17T08:32:27;15.10;99.90
18041;DHT22;9145;48.588;9.250;2022-10-17T08:34:55;15.20;99.90
18041;DHT22;9145;48.588;9.250;2022-10-17T08:37:22;15.40;99.90
18041;DHT22;9145;48.588;9.250;2022-10-17T08:39:49;15.50;99.90
18041;DHT22;9145;48.588;9.250;2022-10-17T08:42:29;15.60;99.90
18041;DHT22;9145;48.588;9.250;2022-10-17T08:45:08;15.70;99.90
18041;DHT22;9145;48.588;9.250;2022-10-17T08:47:38;15.80;99.90
18041;DHT22;9145;48.588;9.250;2022-10-17T08:50:11;15.90;99.90
18041;DHT22;9145;48.588;9.250;2022-10-17T08:52:40;16.00;99.90
18041;DHT22;9145;48.588;9.250;2022-10-17T08:55:14;16.20;99.90
18041;DHT22;9145;48.588;9.250;2022-10-17T08:57:41;16.40;99.90
18041;DHT22;9145;48.588;9.250;2022-10-17T09:00:16;16.50;99.90
18041;DHT22;9145;48.588;9.250;2022-10-17T09:02:54;16.70;99.90
18041;DHT22;9145;48.588;9.250;2022-10-17T09:05:29;16.80;99.90
18041;DHT22;9145;48.588;9.250;2022-10-17T09:08:08;17.00;99.90
18041;DHT22;9145;48.588;9.250;2022-10-17T09:10:51;17.10;99.90
18041;DHT22;9145;48.588;9.250;2022-10-17T09:13:27;17.20;99.90
18041;DHT22;9145;48.588;9.250;2022-10-17T09:18:54;17.50;99.90
18041;DHT22;9145;48.588;9.250;2022-10-17T09:21:30;17.60;99.90
18041;DHT22;9145;48.588;9.250;2022-10-17T09:24:00;17.80;99.90
18041;DHT22;9145;48.588;9.250;2022-10-17T09:26:28;17.80;99.90
18041;DHT22;9145;48.588;9.250;2022-10-17T09:28:56;17.90;99.90
18041;DHT22;9145;48.588;9.250;2022-10-17T09:31:29;18.10;99.90
18041;DHT22;9145;48.588;9.250;2022-10-17T09:34:00;18.30;99.90
18041;DHT22;9145;48.588;9.250;2022-10-17T09:36:29;18.40;99.90
18041;DHT22;9145;48.588;9.250;2022-10-17T09:38:58;18.60;99.90
18041;DHT22;9145;48.588;9.250;2022-10-17T09:41:32;18.80;99.90
18041;DHT22;9145;48.588;9.250;2022-10-17T09:44:11;18.80;99.90
18041;DHT22;9145;48.588;9.250;2022-10-17T09:46:44;18.90;99.90
18041;DHT22;9145;48.588;9.250;2022-10-17T09:49:17;19.00;99.90
18041;DHT22;9145;48.588;9.250;2022-10-17T09:51:44;19.00;99.90
18041;DHT22;9145;48.588;9.250;2022-10-17T09:54:26;19.20;99.90
18041;DHT22;9145;48.588;9.250;2022-10-17T09:56:59;19.30;99.90
18041;DHT22;9145;48.588;9.250;2022-10-17T09:59:31;19.50;99.90
18041;DHT22;9145;48.588;9.250;2022-10-17T10:02:11;19.70;99.90
18041;DHT22;9145;48.588;9.250;2022-10-17T10:04:51;19.80;99.90
18041;DHT22;9145;48.588;9.250;2022-10-17T10:07:18;19.80;99.90
18041;DHT22;9145;48.588;9.250;2022-10-17T10:09:47;19.90;99.90
18041;DHT22;9145;48.588;9.250;2022-10-17T10:12:17;20.00;99.90
18041;DHT22;9145;48.588;9.250;2022-10-17T10:14:45;20.00;99.90
18041;DHT22;9145;48.588;9.250;2022-10-17T10:17:28;20.10;99.90
18041;DHT22;9145;48.588;9.250;2022-10-17T10:19:55;20.30;99.90
18041;DHT22;9145;48.588;9.250;2022-10-17T10:22:22;20.50;99.90
18041;DHT22;9145;48.588;9.250;2022-10-17T10:25:06;20.70;99.90
18041;DHT22;9145;48.588;9.250;2022-10-17T10:27:33;21.00;99.90
18041;DHT22;9145;48.588;9.250;2022-10-17T10:30:02;21.00;99.90
18041;DHT22;9145;48.588;9.250;2022-10-17T10:32:32;20.90;99.90
18041;DHT22;9145;48.588;9.250;2022-10-17T10:35:02;21.00;99.90
18041;DHT22;9145;48.588;9.250;2022-10-17T10:37:34;21.20;99.90
18041;DHT22;9145;48.588;9.250;2022-10-17T10:40:05;21.40;99.90
18041;DHT22;9145;48.588;9.250;2022-10-17T10:42:34;21.40;99.90
18041;DHT22;9145;48.588;9.250;2022-10-17T10:45:17;21.60;99.90
18041;DHT22;9145;48.588;9.250;2022-10-17T10:47:53;21.60;99.90
18041;DHT22;9145;48.588;9.250;2022-10-17T10:50:25;21.60;99.90
18041;DHT22;9145;48.588;9.250;2022-10-17T10:53:06;21.60;99.90
18041;DHT22;9145;48.588;9.250;2022-10-17T10:55:37;21.70;99.90
18041;DHT22;9145;48.588;9.250;2022-10-17T10:58:19;21.90;99.90
18041;DHT22;9145;48.588;9.250;2022-10-17T11:00:48;22.10;99.90
18041;DHT22;9145;48.588;9.250;2022-10-17T11:03:20;22.10;99.90
18041;DHT22;9145;48.588;9.250;2022-10-17T11:05:52;22.10;99.90
18041;DHT22;9145;48.588;9.250;2022-10-17T11:08:24;22.30;99.90
18041;DHT22;9145;48.588;9.250;2022-10-17T11:11:01;22.40;99.90
18041;DHT22;9145;48.588;9.250;2022-10-17T11:13:33;22.60;99.90
18041;DHT22;9145;48.588;9.250;2022-10-17T11:16:13;22.70;99.90
18041;DHT22;9145;48.588;9.250;2022-10-17T11:18:45;22.90;99.90
18041;DHT22;9145;48.588;9.250;2022-10-17T11:21:15;22.90;99.90
18041;DHT22;9145;48.588;9.250;2022-10-17T11:23:46;23.00;99.90
18041;DHT22;9145;48.588;9.250;2022-10-17T11:26:18;23.00;99.90
18041;DHT22;9145;48.588;9.250;2022-10-17T11:28:50;23.00;99.90
18041;DHT22;9145;48.588;9.250;2022-10-17T11:31:20;23.10;99.90
18041;DHT22;9145;48.588;9.250;2022-10-17T11:33:53;23.10;99.90
18041;DHT22;9145;48.588;9.250;2022-10-17T11:36:25;23.20;99.90
18041;DHT22;9145;48.588;9.250;2022-10-17T11:38:57;23.40;99.90
18041;DHT22;9145;48.588;9.250;2022-10-17T11:41:30;23.60;99.90
18041;DHT22;9145;48.588;9.250;2022-10-17T11:44:04;23.70;99.90
18041;DHT22;9145;48.588;9.250;2022-10-17T11:46:34;23.80;99.90
18041;DHT22;9145;48.588;9.250;2022-10-17T11:49:09;23.80;99.90
18041;DHT22;9145;48.588;9.250;2022-10-17T11:51:42;23.90;99.90
18041;DHT22;9145;48.588;9.250;2022-10-17T11:54:13;24.00;99.90
18041;DHT22;9145;48.588;9.250;2022-10-17T11:56:47;24.10;99.90
18041;DHT22;9145;48.588;9.250;2022-10-17T12:02:11;24.40;99.90
18041;DHT22;9145;48.588;9.250;2022-10-17T12:04:53;24.60;99.90
18041;DHT22;9145;48.588;9.250;2022-10-17T12:07:28;24.60;99.90
18041;DHT22;9145;48.588;9.250;2022-10-17T12:09:58;24.60;99.90
18041;DHT22;9145;48.588;9.250;2022-10-17T12:12:29;24.70;99.90
18041;DHT22;9145;48.588;9.250;2022-10-17T12:15:28;24.70;99.90
18041;DHT22;9145;48.588;9.250;2022-10-17T12:17:57;24.70;99.90
18041;DHT22;9145;48.588;9.250;2022-10-17T12:20:35;24.70;99.90
18041;DHT22;9145;48.588;9.250;2022-10-17T12:23:24;24.70;99.90
18041;DHT22;9145;48.588;9.250;2022-10-17T12:25:54;24.90;99.90
18041;DHT22;9145;48.588;9.250;2022-10-17T12:28:27;25.00;99.90
18041;DHT22;9145;48.588;9.250;2022-10-17T12:31:00;25.00;99.90
18041;DHT22;9145;48.588;9.250;2022-10-17T12:33:31;25.20;99.90
18041;DHT22;9145;48.588;9.250;2022-10-17T12:39:47;25.20;99.90
18041;DHT22;9145;48.588;9.250;2022-10-17T12:42:30;25.20;99.90
18041;DHT22;9145;48.588;9.250;2022-10-17T12:44:57;25.20;99.90
18041;DHT22;9145;48.588;9.250;2022-10-17T12:47:36;25.20;99.90
18041;DHT22;9145;48.588;9.250;2022-10-17T12:53:19;25.10;99.90
18041;DHT22;9145;48.588;9.250;2022-10-17T12:55:49;25.00;99.90
18041;DHT22;9145;48.588;9.250;2022-10-17T12:58:24;25.00;99.90
18041;DHT22;9145;48.588;9.250;2022-10-17T13:00:52;25.20;99.90
18041;DHT22;9145;48.588;9.250;2022-10-17T13:03:22;25.30;99.90
18041;DHT22;9145;48.588;9.250;2022-10-17T13:05:51;25.40;99.90
18041;DHT22;9145;48.588;9.250;2022-10-17T13:08:22;25.50;99.90
18041;DHT22;9145;48.588;9.250;2022-10-17T13:10:51;25.40;99.90
18041;DHT22;9145;48.588;9.250;2022-10-17T13:13:22;25.40;99.90
18041;DHT22;9145;48.588;9.250;2022-10-17T13:15:51;25.50;99.90
18041;DHT22;9145;48.588;9.250;2022-10-17T13:18:22;25.50;99.90
18041;DHT22;9145;48.588;9.250;2022-10-17T13:20:55;25.50;99.90
18041;DHT22;9145;48.588;9.250;2022-10-17T13:23:25;25.50;99.90
18041;DHT22;9145;48.588;9.250;2022-10-17T13:26:13;25.50;99.90
18041;DHT22;9145;48.588;9.250;2022-10-17T13:28:41;25.50;99.90
18041;DHT22;9145;48.588;9.250;2022-10-17T13:31:26;25.50;99.90
18041;DHT22;9145;48.588;9.250;2022-10-17T13:33:55;25.70;99.90
18041;DHT22;9145;48.588;9.250;2022-10-17T13:36:23;25.70;99.90
18041;DHT22;9145;48.588;9.250;2022-10-17T13:38:52;25.70;99.90
18041;DHT22;9145;48.588;9.250;2022-10-17T13:41:25;25.70;99.90
18041;DHT22;9145;48.588;9.250;2022-10-17T13:43:53;25.70;99.90
18041;DHT22;9145;48.588;9.250;2022-10-17T13:46:25;25.80;99.90
18041;DHT22;9145;48.588;9.250;2022-10-17T13:48:52;25.80;99.90
18041;DHT22;9145;48.588;9.250;2022-10-17T13:51:19;26.00;99.90
18041;DHT22;9145;48.588;9.250;2022-10-17T13:53:47;26.00;99.90
18041;DHT22;9145;48.588;9.250;2022-10-17T13:56:20;25.90;99.90
18041;DHT22;9145;48.588;9.250;2022-10-17T13:58:50;26.00;99.90
18041;DHT22;9145;48.588;9.250;2022-10-17T14:01:19;26.10;99.90
18041;DHT22;9145;48.588;9.250;2022-10-17T14:03:47;26.10;99.90
18041;DHT22;9145;48.588;9.250;2022-10-17T14:06:16;26.10;99.90
18041;DHT22;9145;48.588;9.250;2022-10-17T14:08:50;26.40;99.90
18041;DHT22;9145;48.588;9.250;2022-10-17T14:11:26;26.50;99.90
18041;DHT22;9145;48.588;9.250;2022-10-17T14:13:55;26.50;99.80
18041;DHT22;9145;48.588;9.250;2022-10-17T14:16:24;26.40;99.90
18041;DHT22;9145;48.588;9.250;2022-10-17T14:18:52;26.50;99.90
18041;DHT22;9145;48.588;9.250;2022-10-17T14:21:22;26.40;99.90
18041;DHT22;9145;48.588;9.250;2022-10-17T14:23:50;26.50;99.90
18041;DHT22;9145;48.588;9.250;2022-10-17T14:26:19;26.50;99.90
18041;DHT22;9145;48.588;9.250;2022-10-17T14:28:49;26.40;99.60
18041;DHT22;9145;48.588;9.250;2022-10-17T14:31:28;26.30;99.90
18041;DHT22;9145;48.588;9.250;2022-10-17T14:33:57;26.20;99.80
18041;DHT22;9145;48.588;9.250;2022-10-17T14:36:37;26.40;99.50
18041;DHT22;9145;48.588;9.250;2022-10-17T14:39:05;26.70;99.90
18041;DHT22;9145;48.588;9.250;2022-10-17T14:41:34;26.80;99.80
18041;DHT22;9145;48.588;9.250;2022-10-17T14:44:05;27.00;99.40
18041;DHT22;9145;48.588;9.250;2022-10-17T14:46:34;27.20;99.80
18041;DHT22;9145;48.588;9.250;2022-10-17T14:49:05;27.20;99.80
18041;DHT22;9145;48.588;9.250;2022-10-17T14:51:32;27.50;99.90
18041;DHT22;9145;48.588;9.250;2022-10-17T14:54:02;27.50;98.80
18041;DHT22;9145;48.588;9.250;2022-10-17T14:56:36;27.60;99.50
18041;DHT22;9145;48.588;9.250;2022-10-17T14:59:06;27.60;98.50
18041;DHT22;9145;48.588;9.250;2022-10-17T15:01:34;27.70;99.10
18041;DHT22;9145;48.588;9.250;2022-10-17T15:04:01;27.60;98.50
18041;DHT22;9145;48.588;9.250;2022-10-17T15:06:30;27.60;99.00
18041;DHT22;9145;48.588;9.250;2022-10-17T15:08:58;27.70;98.80
18041;DHT22;9145;48.588;9.250;2022-10-17T15:11:25;27.80;98.70
18041;DHT22;9145;48.588;9.250;2022-10-17T15:13:52;28.10;98.00
18041;DHT22;9145;48.588;9.250;2022-10-17T15:16:22;28.20;98.50
18041;DHT22;9145;48.588;9.250;2022-10-17T15:18:50;28.30;98.70
18041;DHT22;9145;48.588;9.250;2022-10-17T15:21:18;28.20;98.10
18041;DHT22;9145;48.588;9.250;2022-10-17T15:23:46;28.40;97.60
18041;DHT22;9145;48.588;9.250;2022-10-17T15:26:14;28.60;97.90
18041;DHT22;9145;48.588;9.250;2022-10-17T15:28:42;28.60;97.20
18041;DHT22;9145;48.588;9.250;2022-10-17T15:31:10;28.70;98.70
18041;DHT22;9145;48.588;9.250;2022-10-17T15:33:39;28.80;98.50
18041;DHT22;9145;48.588;9.250;2022-10-17T15:36:19;29.10;98.00
18041;DHT22;9145;48.588;9.250;2022-10-17T15:38:47;29.10;97.20
18041;DHT22;9145;48.588;9.250;2022-10-17T15:41:14;29.20;96.60
18041;DHT22;9145;48.588;9.250;2022-10-17T15:43:41;29.40;96.90
18041;DHT22;9145;48.588;9.250;2022-10-17T15:46:13;29.50;96.80
18041;DHT22;9145;48.588;9.250;2022-10-17T15:48:41;29.30;96.50
18041;DHT22;9145;48.588;9.250;2022-10-17T15:51:08;29.30;96.70
18041;DHT22;9145;48.588;9.250;2022-10-17T15:53:35;29.30;97.10
18041;DHT22;9145;48.588;9.250;2022-10-17T15:56:03;29.40;97.00
18041;DHT22;9145;48.588;9.250;2022-10-17T15:58:33;29.50;98.40
18041;DHT22;9145;48.588;9.250;2022-10-17T16:01:01;29.40;99.30
18041;DHT22;9145;48.588;9.250;2022-10-17T16:03:29;29.20;99.80
18041;DHT22;9145;48.588;9.250;2022-10-17T16:05:57;28.90;99.90
18041;DHT22;9145;48.588;9.250;2022-10-17T16:08:24;28.40;99.90
18041;DHT22;9145;48.588;9.250;2022-10-17T16:10:52;28.00;99.90
18041;DHT22;9145;48.588;9.250;2022-10-17T16:13:22;27.60;99.90
18041;DHT22;9145;48.588;9.250;2022-10-17T16:15:49;27.20;99.90
18041;DHT22;9145;48.588;9.250;2022-10-17T16:18:16;26.70;99.90